createdAt,value
2022-08-21T00:02:21.002Z,17.50
2022-08-21T00:04:55.900Z,17.50
2022-08-21T00:07:25.417Z,17.30
2022-08-21T00:09:53.619Z,17.20
2022-08-21T00:12:23.716Z,17.30
2022-08-21T00:14:50.509Z,17.40
2022-08-21T00:17:23.902Z,17.30
2022-08-21T00:19:50.697Z,17.30
2022-08-21T00:22:18.270Z,17.20
2022-08-21T00:24:45.129Z,17.30
2022-08-21T00:27:11.947Z,17.30
2022-08-21T00:29:38.800Z,17.20
2022-08-21T00:32:05.829Z,17.20
2022-08-21T00:34:32.756Z,17.00
2022-08-21T00:36:59.579Z,17.10
2022-08-21T00:39:26.354Z,17.10
2022-08-21T00:41:53.177Z,17.20
2022-08-21T00:44:19.890Z,17.20
2022-08-21T00:46:47.599Z,17.20
2022-08-21T00:49:14.664Z,17.10
2022-08-21T00:51:56.459Z,17.10
2022-08-21T00:54:26.347Z,17.20
2022-08-21T00:57:01.083Z,17.10
2022-08-21T00:59:30.543Z,17.10
2022-08-21T01:01:57.545Z,17.20
2022-08-21T01:04:24.847Z,17.20
2022-08-21T01:06:52.534Z,17.00
2022-08-21T01:09:20.028Z,17.00
2022-08-21T01:11:47.574Z,17.00
2022-08-21T01:14:15.875Z,17.10
2022-08-21T01:16:46.299Z,16.90
2022-08-21T01:19:14.788Z,16.90
2022-08-21T01:21:42.160Z,17.00
2022-08-21T01:24:12.284Z,17.00
2022-08-21T01:26:39.337Z,16.90
2022-08-21T01:29:41.310Z,17.00
2022-08-21T01:32:16.734Z,16.90
2022-08-21T01:34:46.509Z,17.00
2022-08-21T01:37:14.110Z,16.70
2022-08-21T01:39:42.242Z,16.80
2022-08-21T01:42:10.948Z,16.80
2022-08-21T01:44:38.002Z,16.80
2022-08-21T01:47:08.615Z,16.70
2022-08-21T01:49:36.408Z,16.70
2022-08-21T01:52:04.574Z,16.50
2022-08-21T01:54:31.803Z,16.50
2022-08-21T01:57:00.178Z,16.60
2022-08-21T01:59:27.555Z,16.70
2022-08-21T02:01:58.432Z,16.80
2022-08-21T02:04:25.735Z,16.80
2022-08-21T02:06:52.906Z,16.80
2022-08-21T02:09:20.591Z,16.90
2022-08-21T02:11:47.527Z,16.90
2022-08-21T02:14:16.129Z,16.80
2022-08-21T02:17:03.389Z,16.80
2022-08-21T02:19:40.364Z,16.70
2022-08-21T02:22:10.165Z,16.60
2022-08-21T02:24:50.559Z,16.50
2022-08-21T02:27:27.235Z,16.50
2022-08-21T02:29:57.366Z,16.60
2022-08-21T02:32:24.473Z,16.60
2022-08-21T02:34:51.236Z,16.50
2022-08-21T02:37:18.127Z,16.50
2022-08-21T02:39:44.993Z,16.40
2022-08-21T02:42:11.812Z,16.40
2022-08-21T02:44:38.605Z,16.40
2022-08-21T02:47:05.573Z,16.30
2022-08-21T02:49:32.384Z,16.20
2022-08-21T02:51:59.103Z,16.40
2022-08-21T02:54:26.056Z,16.30
2022-08-21T02:56:52.912Z,16.30
2022-08-21T02:59:19.940Z,16.30
2022-08-21T03:01:46.818Z,16.20
2022-08-21T03:04:13.699Z,16.20
2022-08-21T03:06:40.448Z,16.30
2022-08-21T03:09:07.367Z,16.20
2022-08-21T03:11:34.092Z,16.10
2022-08-21T03:14:00.834Z,16.20
2022-08-21T03:16:30.944Z,16.10
2022-08-21T03:19:00.713Z,16.10
2022-08-21T03:21:27.531Z,16.20
2022-08-21T03:23:55.123Z,16.20
2022-08-21T03:26:22.312Z,16.20
2022-08-21T03:28:51.648Z,16.10
2022-08-21T03:31:18.639Z,16.00
2022-08-21T03:33:45.570Z,16.00
2022-08-21T03:36:12.432Z,16.10
2022-08-21T03:38:40.019Z,16.00
2022-08-21T03:41:08.287Z,16.00
2022-08-21T03:43:36.242Z,16.00
2022-08-21T03:46:04.401Z,16.00
2022-08-21T03:48:31.522Z,16.00
2022-08-21T03:50:58.480Z,16.00
2022-08-21T03:53:25.904Z,15.90
2022-08-21T03:55:53.626Z,16.00
2022-08-21T03:58:22.890Z,15.90
2022-08-21T04:00:52.502Z,15.90
2022-08-21T04:03:20.611Z,15.80
2022-08-21T04:05:47.508Z,15.90
2022-08-21T04:08:16.028Z,15.70
2022-08-21T04:10:44.685Z,15.60
2022-08-21T04:13:11.522Z,15.50
2022-08-21T04:15:38.564Z,15.70
2022-08-21T04:18:06.552Z,15.60
2022-08-21T04:20:34.101Z,15.60
2022-08-21T04:23:01.118Z,15.60
2022-08-21T04:25:28.237Z,15.60
2022-08-21T04:27:55.339Z,15.60
2022-08-21T04:30:28.095Z,15.50
2022-08-21T04:32:57.344Z,15.30
2022-08-21T04:35:26.559Z,15.30
2022-08-21T04:37:53.444Z,15.30
2022-08-21T04:40:22.671Z,15.40
2022-08-21T04:43:03.850Z,15.40
2022-08-21T04:45:32.172Z,15.40
2022-08-21T04:48:01.238Z,15.40
2022-08-21T04:50:37.674Z,15.30
2022-08-21T04:53:11.263Z,15.40
2022-08-21T04:55:38.881Z,15.40
2022-08-21T04:58:12.230Z,15.30
2022-08-21T05:00:39.840Z,15.30
2022-08-21T05:03:08.746Z,15.20
2022-08-21T05:05:35.975Z,15.20
2022-08-21T05:08:04.271Z,15.30
2022-08-21T05:10:32.536Z,15.40
2022-08-21T05:13:01.437Z,15.40
2022-08-21T05:15:28.379Z,15.30
2022-08-21T05:18:00.720Z,15.40
2022-08-21T05:20:28.922Z,15.40
2022-08-21T05:22:55.722Z,15.50
2022-08-21T05:25:23.810Z,15.40
2022-08-21T05:27:51.990Z,15.30
2022-08-21T05:30:20.854Z,15.40
2022-08-21T05:32:48.614Z,15.50
2022-08-21T05:35:15.830Z,15.40
2022-08-21T05:37:42.694Z,15.60
2022-08-21T05:40:22.651Z,15.60
2022-08-21T05:42:55.341Z,15.50
2022-08-21T05:45:43.115Z,15.40
2022-08-21T05:48:22.478Z,15.40
2022-08-21T05:50:51.164Z,15.50
2022-08-21T05:53:19.568Z,15.70
2022-08-21T05:55:47.494Z,15.60
2022-08-21T05:58:16.898Z,15.80
2022-08-21T06:00:44.438Z,15.80
2022-08-21T06:03:24.038Z,15.60
2022-08-21T06:05:51.018Z,15.70
2022-08-21T06:08:19.067Z,15.80
2022-08-21T06:10:47.673Z,15.60
2022-08-21T06:13:16.583Z,15.70
2022-08-21T06:15:43.634Z,15.70
2022-08-21T06:18:10.944Z,15.70
2022-08-21T06:20:38.322Z,15.80
2022-08-21T06:23:05.563Z,15.90
2022-08-21T06:25:32.759Z,15.90
2022-08-21T06:28:07.583Z,16.00
2022-08-21T06:30:37.083Z,16.10
2022-08-21T06:33:04.433Z,16.30
2022-08-21T06:35:31.413Z,16.40
2022-08-21T06:37:58.702Z,16.40
2022-08-21T06:40:27.397Z,16.50
2022-08-21T06:42:58.825Z,16.50
2022-08-21T06:45:25.857Z,16.60
2022-08-21T06:47:55.235Z,16.70
2022-08-21T06:50:22.226Z,16.80
2022-08-21T06:52:49.080Z,16.90
2022-08-21T06:55:22.344Z,17.30
2022-08-21T06:57:52.357Z,17.40
2022-08-21T07:00:20.262Z,17.50
2022-08-21T07:02:47.070Z,17.60
2022-08-21T07:05:18.192Z,17.90
2022-08-21T07:07:46.504Z,17.90
2022-08-21T07:10:21.813Z,17.80
2022-08-21T07:12:48.978Z,18.00
2022-08-21T07:15:18.074Z,18.10
2022-08-21T07:17:44.933Z,18.30
2022-08-21T07:20:11.974Z,18.40
2022-08-21T07:22:41.482Z,18.30
2022-08-21T07:25:09.650Z,18.50
2022-08-21T07:27:37.144Z,18.60
2022-08-21T07:30:05.589Z,18.60
2022-08-21T07:32:32.636Z,18.80
2022-08-21T07:34:59.715Z,18.90
2022-08-21T07:37:26.595Z,19.00
2022-08-21T07:39:53.557Z,19.20
2022-08-21T07:42:20.406Z,19.20
2022-08-21T07:44:47.257Z,19.30
2022-08-21T07:47:16.332Z,19.20
2022-08-21T07:50:03.941Z,19.20
2022-08-21T07:52:33.558Z,19.40
2022-08-21T07:55:05.858Z,19.60
2022-08-21T07:57:33.414Z,19.60
2022-08-21T08:00:00.411Z,19.80
2022-08-21T08:02:30.203Z,19.90
2022-08-21T08:05:02.110Z,19.70
2022-08-21T08:07:28.961Z,19.60
2022-08-21T08:09:55.851Z,19.70
2022-08-21T08:12:23.177Z,19.90
2022-08-21T08:14:49.997Z,20.20
2022-08-21T08:17:16.915Z,20.30
2022-08-21T08:19:43.785Z,20.40
2022-08-21T08:22:15.640Z,20.30
2022-08-21T08:24:42.586Z,20.50
2022-08-21T08:27:09.585Z,20.70
2022-08-21T08:29:36.449Z,20.90
2022-08-21T08:32:05.067Z,20.90
2022-08-21T08:34:31.877Z,21.00
2022-08-21T08:37:01.690Z,20.90
2022-08-21T08:39:29.687Z,20.90
2022-08-21T08:42:32.850Z,20.90
2022-08-21T08:45:11.587Z,21.10
2022-08-21T08:47:45.497Z,21.30
2022-08-21T08:50:14.815Z,21.70
2022-08-21T08:52:46.432Z,21.90
2022-08-21T08:55:26.605Z,21.70
2022-08-21T08:57:55.625Z,21.70
2022-08-21T09:00:24.505Z,21.90
2022-08-21T09:02:56.676Z,21.60
2022-08-21T09:05:29.724Z,22.30
2022-08-21T09:08:27.387Z,22.70
2022-08-21T09:11:14.099Z,23.30
2022-08-21T09:14:03.389Z,23.00
2022-08-21T09:16:33.307Z,23.10
2022-08-21T09:19:07.692Z,23.40
2022-08-21T09:21:44.399Z,23.30
2022-08-21T09:24:37.930Z,23.20
2022-08-21T09:27:12.902Z,23.50
2022-08-21T09:29:43.589Z,23.40
2022-08-21T09:32:20.157Z,22.90
2022-08-21T09:35:23.184Z,22.90
2022-08-21T09:38:10.599Z,23.10
2022-08-21T09:40:39.204Z,23.60
2022-08-21T09:43:19.723Z,23.90
2022-08-21T09:45:48.430Z,24.10
2022-08-21T09:48:26.441Z,23.60
2022-08-21T09:50:54.852Z,23.30
2022-08-21T09:53:26.494Z,23.70
2022-08-21T09:56:17.118Z,24.20
2022-08-21T09:58:47.976Z,24.20
2022-08-21T10:01:26.392Z,24.40
2022-08-21T10:04:09.736Z,24.00
2022-08-21T10:06:36.765Z,23.30
2022-08-21T10:09:21.469Z,23.70
2022-08-21T10:12:05.462Z,23.40
2022-08-21T10:14:54.071Z,22.90
2022-08-21T10:17:46.041Z,22.80
2022-08-21T10:20:26.282Z,22.80
2022-08-21T10:23:14.761Z,22.90
2022-08-21T10:26:05.446Z,22.90
2022-08-21T10:29:03.952Z,23.10
2022-08-21T10:31:54.343Z,23.20
2022-08-21T10:34:47.243Z,23.10
2022-08-21T10:37:20.199Z,22.90
2022-08-21T10:40:16.683Z,23.10
2022-08-21T10:43:05.295Z,23.10
2022-08-21T10:46:02.839Z,23.30
2022-08-21T10:49:05.143Z,23.50
2022-08-21T10:51:50.491Z,23.50
2022-08-21T10:54:30.439Z,23.40
2022-08-21T10:57:04.808Z,23.50
2022-08-21T10:59:58.228Z,23.70
2022-08-21T11:02:33.884Z,24.00
2022-08-21T11:05:07.999Z,23.60
2022-08-21T11:07:46.768Z,23.30
2022-08-21T11:10:28.586Z,23.00
2022-08-21T11:13:09.975Z,23.00
2022-08-21T11:15:55.249Z,23.20
2022-08-21T11:18:35.433Z,23.30
2022-08-21T11:21:43.510Z,23.20
2022-08-21T11:24:23.765Z,23.50
2022-08-21T11:27:16.091Z,23.80
2022-08-21T11:29:48.784Z,23.80
2022-08-21T11:32:40.533Z,24.30
2022-08-21T11:35:38.485Z,24.20
2022-08-21T11:38:28.919Z,24.50
2022-08-21T11:41:03.886Z,24.90
2022-08-21T11:43:52.125Z,27.60
2022-08-21T11:46:32.124Z,27.30
2022-08-21T11:49:16.858Z,26.90
2022-08-21T11:51:53.596Z,26.40
2022-08-21T11:54:45.292Z,27.40
2022-08-21T11:57:39.881Z,26.70
2022-08-21T12:00:19.953Z,26.00
2022-08-21T12:02:53.137Z,25.30
2022-08-21T12:05:40.694Z,25.90
2022-08-21T12:08:27.310Z,25.10
2022-08-21T12:11:07.553Z,24.70
2022-08-21T12:13:54.802Z,25.30
2022-08-21T12:16:33.602Z,26.40
2022-08-21T12:19:04.743Z,28.30
2022-08-21T12:21:31.830Z,28.30
2022-08-21T12:24:13.637Z,27.80
2022-08-21T12:26:52.391Z,26.30
2022-08-21T12:29:34.161Z,25.30
2022-08-21T12:32:15.752Z,25.70
2022-08-21T12:35:08.219Z,26.10
2022-08-21T12:37:46.241Z,25.20
2022-08-21T12:40:39.900Z,25.40
2022-08-21T12:43:14.161Z,25.60
2022-08-21T12:45:46.395Z,26.10
2022-08-21T12:48:39.216Z,25.70
2022-08-21T12:51:19.334Z,25.40
2022-08-21T12:53:57.911Z,25.40
2022-08-21T12:56:31.186Z,25.20
2022-08-21T12:59:04.383Z,25.20
2022-08-21T13:01:41.951Z,26.60
2022-08-21T13:04:13.924Z,27.20
2022-08-21T13:06:46.795Z,26.00
2022-08-21T13:09:16.504Z,25.40
2022-08-21T13:11:47.750Z,25.90
2022-08-21T13:14:30.001Z,25.30
2022-08-21T13:16:59.681Z,25.20
2022-08-21T13:19:27.831Z,24.80
2022-08-21T13:21:54.579Z,24.80
2022-08-21T13:27:31.072Z,26.60
2022-08-21T13:30:11.483Z,25.20
2022-08-21T13:32:43.278Z,24.70
2022-08-21T13:35:16.778Z,24.30
2022-08-21T13:37:45.646Z,24.70
2022-08-21T13:40:20.487Z,24.80
2022-08-21T13:42:49.330Z,24.50
2022-08-21T13:45:32.735Z,24.10
2022-08-21T13:48:03.193Z,24.40
2022-08-21T13:50:36.134Z,24.60
2022-08-21T13:53:06.170Z,24.80
2022-08-21T13:55:43.832Z,24.50
2022-08-21T13:58:12.712Z,24.50
2022-08-21T14:00:52.977Z,24.50
2022-08-21T14:03:52.875Z,25.50
2022-08-21T14:06:24.162Z,24.70
2022-08-21T14:08:55.176Z,25.00
2022-08-21T14:11:22.783Z,25.60
2022-08-21T14:14:02.979Z,26.30
2022-08-21T14:16:46.712Z,26.60
2022-08-21T14:19:24.007Z,26.50
2022-08-21T14:21:51.477Z,26.00
2022-08-21T14:24:24.363Z,24.80
2022-08-21T14:26:57.464Z,24.30
2022-08-21T14:29:27.169Z,24.50
2022-08-21T14:32:21.441Z,24.70
2022-08-21T14:34:48.885Z,25.00
2022-08-21T14:37:15.725Z,25.00
2022-08-21T14:39:45.248Z,24.80
2022-08-21T14:42:13.525Z,24.70
2022-08-21T14:44:40.373Z,24.40
2022-08-21T14:47:07.593Z,24.40
2022-08-21T14:49:34.355Z,24.00
2022-08-21T14:52:01.374Z,24.10
2022-08-21T14:54:32.309Z,24.60
2022-08-21T14:57:06.203Z,24.60
2022-08-21T14:59:34.116Z,24.90
2022-08-21T15:02:02.301Z,24.80
2022-08-21T15:04:29.440Z,24.50
2022-08-21T15:06:56.297Z,24.10
2022-08-21T15:09:24.868Z,23.90
2022-08-21T15:11:56.111Z,23.80
2022-08-21T15:14:26.019Z,23.80
2022-08-21T15:16:53.159Z,23.80
2022-08-21T15:19:20.208Z,23.90
2022-08-21T15:21:46.989Z,23.90
2022-08-21T15:24:13.734Z,23.80
2022-08-21T15:26:40.578Z,23.70
2022-08-21T15:29:08.949Z,23.90
2022-08-21T15:31:36.727Z,24.00
2022-08-21T15:34:04.129Z,24.20
2022-08-21T15:36:31.058Z,24.10
2022-08-21T15:38:57.806Z,23.80
2022-08-21T15:41:24.587Z,24.00
2022-08-21T15:43:53.952Z,24.00
2022-08-21T15:46:21.634Z,23.90
2022-08-21T15:48:48.958Z,23.80
2022-08-21T15:51:17.681Z,24.00
2022-08-21T15:53:45.378Z,24.00
2022-08-21T15:56:28.152Z,24.10
2022-08-21T15:59:03.298Z,23.90
2022-08-21T16:01:36.285Z,23.80
2022-08-21T16:04:16.324Z,23.80
2022-08-21T16:06:53.255Z,23.60
2022-08-21T16:09:22.744Z,23.80
2022-08-21T16:11:50.076Z,23.70
2022-08-21T16:14:17.827Z,23.70
2022-08-21T16:16:45.411Z,23.90
2022-08-21T16:19:13.576Z,23.70
2022-08-21T16:21:41.063Z,23.50
2022-08-21T16:24:07.900Z,23.50
2022-08-21T16:26:34.793Z,23.40
2022-08-21T16:29:03.178Z,23.50
2022-08-21T16:31:32.172Z,23.40
2022-08-21T16:34:00.458Z,23.30
2022-08-21T16:36:27.578Z,23.30
2022-08-21T16:38:58.724Z,23.40
2022-08-21T16:41:30.719Z,23.30
2022-08-21T16:43:57.504Z,23.10
2022-08-21T16:46:24.890Z,23.20
2022-08-21T16:48:51.736Z,23.20
2022-08-21T16:51:18.641Z,23.10
2022-08-21T16:53:45.616Z,23.10
2022-08-21T16:56:14.898Z,23.00
2022-08-21T16:58:44.521Z,23.10
2022-08-21T17:01:14.968Z,22.90
2022-08-21T17:03:46.257Z,22.90
2022-08-21T17:06:14.763Z,22.90
2022-08-21T17:08:41.736Z,22.90
2022-08-21T17:11:32.532Z,23.00
2022-08-21T17:14:05.302Z,22.80
2022-08-21T17:16:32.443Z,22.60
2022-08-21T17:18:59.173Z,22.60
2022-08-21T17:21:26.029Z,22.60
2022-08-21T17:23:52.784Z,22.60
2022-08-21T17:26:19.703Z,22.50
2022-08-21T17:28:47.250Z,22.40
2022-08-21T17:31:14.809Z,22.50
2022-08-21T17:33:50.506Z,22.50
2022-08-21T17:36:26.359Z,22.40
2022-08-21T17:38:53.814Z,22.30
2022-08-21T17:41:21.140Z,22.60
2022-08-21T17:43:49.529Z,22.70
2022-08-21T17:46:21.493Z,22.60
2022-08-21T17:48:48.283Z,22.50
2022-08-21T17:51:15.610Z,22.40
2022-08-21T17:53:42.611Z,22.40
2022-08-21T17:56:09.900Z,22.40
2022-08-21T17:58:38.269Z,22.50
2022-08-21T18:01:05.863Z,22.50
2022-08-21T18:03:37.161Z,22.50
2022-08-21T18:06:06.253Z,22.40
2022-08-21T18:08:33.869Z,22.20
2022-08-21T18:11:00.902Z,22.20
2022-08-21T18:13:31.206Z,22.20
2022-08-21T18:16:00.261Z,22.10
2022-08-21T18:18:30.104Z,22.30
2022-08-21T18:20:58.095Z,22.30
2022-08-21T18:23:43.273Z,22.30
2022-08-21T18:26:13.997Z,22.20
2022-08-21T18:28:41.569Z,22.00
2022-08-21T18:31:10.817Z,22.10
2022-08-21T18:33:39.601Z,22.10
2022-08-21T18:36:11.204Z,22.20
2022-08-21T18:38:38.177Z,22.20
2022-08-21T18:41:10.484Z,22.30
2022-08-21T18:43:37.874Z,22.20
2022-08-21T18:46:05.298Z,22.10
2022-08-21T18:48:32.743Z,22.20
2022-08-21T18:50:59.721Z,22.10
2022-08-21T18:53:29.098Z,22.00
2022-08-21T18:58:44.525Z,22.00
2022-08-21T19:01:12.157Z,22.10
2022-08-21T19:03:39.806Z,22.00
2022-08-21T19:06:09.617Z,22.00
2022-08-21T19:08:38.787Z,22.00
2022-08-21T19:11:06.664Z,22.00
2022-08-21T19:13:34.524Z,22.00
2022-08-21T19:16:05.126Z,22.00
2022-08-21T19:18:37.320Z,22.00
2022-08-21T19:21:04.364Z,21.90
2022-08-21T19:23:31.327Z,21.90
2022-08-21T19:26:06.113Z,22.00
2022-08-21T19:28:41.026Z,22.00
2022-08-21T19:31:34.002Z,21.80
2022-08-21T19:34:02.671Z,21.90
2022-08-21T19:36:30.615Z,21.80
2022-08-21T19:38:58.336Z,21.80
2022-08-21T19:41:28.291Z,21.70
2022-08-21T19:43:58.140Z,21.70
2022-08-21T19:46:28.576Z,21.60
2022-08-21T19:48:56.639Z,21.60
2022-08-21T19:51:24.576Z,21.60
2022-08-21T19:53:57.221Z,21.70
2022-08-21T19:56:27.247Z,21.70
2022-08-21T19:58:54.491Z,21.70
2022-08-21T20:01:24.024Z,21.70
2022-08-21T20:03:53.773Z,21.60
2022-08-21T20:06:24.158Z,21.60
2022-08-21T20:08:52.213Z,21.60
2022-08-21T20:11:31.535Z,21.50
2022-08-21T20:13:59.374Z,21.50
2022-08-21T20:16:28.505Z,21.50
2022-08-21T20:18:55.333Z,21.50
2022-08-21T20:21:22.148Z,21.50
2022-08-21T20:23:50.057Z,21.60
2022-08-21T20:26:18.554Z,21.50
2022-08-21T20:28:45.681Z,21.40
2022-08-21T20:31:14.589Z,21.40
2022-08-21T20:33:42.120Z,21.30
2022-08-21T20:36:09.582Z,21.20
2022-08-21T20:38:36.615Z,21.20
2022-08-21T20:41:04.181Z,21.10
2022-08-21T20:43:32.824Z,21.10
2022-08-21T20:46:00.815Z,21.20
2022-08-21T20:48:48.866Z,21.20
2022-08-21T20:51:25.225Z,21.20
2022-08-21T20:53:57.551Z,21.10
2022-08-21T20:56:31.120Z,21.10
2022-08-21T20:59:06.375Z,21.10
2022-08-21T21:01:34.354Z,21.10
2022-08-21T21:04:20.193Z,21.00
2022-08-21T21:06:50.103Z,21.00
2022-08-21T21:09:31.983Z,20.90
2022-08-21T21:12:03.173Z,20.90
2022-08-21T21:14:44.933Z,20.80
2022-08-21T21:20:25.070Z,20.70
2022-08-21T21:22:57.486Z,20.70
2022-08-21T21:25:39.856Z,20.60
2022-08-21T21:28:19.451Z,20.60
2022-08-21T21:30:51.972Z,20.50
2022-08-21T21:33:25.100Z,20.40
2022-08-21T21:35:59.017Z,20.40
2022-08-21T21:38:51.541Z,20.50
2022-08-21T21:41:49.819Z,20.40
2022-08-21T21:44:39.340Z,20.30
2022-08-21T21:47:14.668Z,20.30
2022-08-21T21:49:56.456Z,20.40
2022-08-21T21:52:54.798Z,20.30
2022-08-21T21:55:32.405Z,20.30
2022-08-21T21:58:33.389Z,20.30
2022-08-21T22:01:18.096Z,20.30
2022-08-21T22:03:55.778Z,20.30
2022-08-21T22:06:59.583Z,20.20
2022-08-21T22:09:41.127Z,20.20
2022-08-21T22:12:33.151Z,20.20
2022-08-21T22:15:08.930Z,20.20
2022-08-21T22:17:53.007Z,20.10
2022-08-21T22:20:58.701Z,20.10
2022-08-21T22:23:30.094Z,20.00
2022-08-21T22:26:04.820Z,20.10
2022-08-21T22:28:36.620Z,20.00
2022-08-21T22:31:24.983Z,20.00
2022-08-21T22:34:05.820Z,19.90
2022-08-21T22:36:37.276Z,19.90
2022-08-21T22:39:08.297Z,19.90
2022-08-21T22:41:41.199Z,19.90
2022-08-21T22:44:18.262Z,19.90
2022-08-21T22:46:55.876Z,19.80
2022-08-21T22:49:26.098Z,19.90
2022-08-21T22:52:07.339Z,19.80
2022-08-21T22:54:42.906Z,19.80
2022-08-21T22:57:33.146Z,19.80
2022-08-21T23:00:16.435Z,19.80
2022-08-21T23:02:52.282Z,19.80
2022-08-21T23:05:35.509Z,19.80
2022-08-21T23:08:25.195Z,19.80
2022-08-21T23:10:58.287Z,19.80
2022-08-21T23:13:25.217Z,19.80
2022-08-21T23:16:22.366Z,19.90
2022-08-21T23:19:15.786Z,19.90
2022-08-21T23:22:20.998Z,20.00
2022-08-21T23:24:50.526Z,20.00
2022-08-21T23:27:39.430Z,20.00
2022-08-21T23:30:10.049Z,20.00
2022-08-21T23:33:01.956Z,20.00
2022-08-21T23:36:06.852Z,20.00
2022-08-21T23:38:44.030Z,20.00
2022-08-21T23:41:34.307Z,20.00
2022-08-21T23:44:04.097Z,20.00
2022-08-21T23:46:47.256Z,20.00
2022-08-21T23:49:48.424Z,20.00
2022-08-21T23:52:36.422Z,19.90
2022-08-21T23:55:23.173Z,19.90
2022-08-21T23:58:30.871Z,19.90
